sensor_id;sensor_type;location;lat;lon;timestamp;pressure;altitude;pressure_sealevel;temperature;humidity
47815;BME280;33579;50.058;18.130;2023-06-22T00:00:11;99398.81;;;22.20;100.00
47815;BME280;33579;50.058;18.130;2023-06-22T00:01:14;99397.78;;;22.21;100.00
47815;BME280;33579;50.058;18.130;2023-06-22T00:02:15;99408.31;;;22.29;100.00
47815;BME280;33579;50.058;18.130;2023-06-22T00:03:18;99413.66;;;22.29;100.00
47815;BME280;33579;50.058;18.130;2023-06-22T00:04:20;99409.13;;;22.30;100.00
47815;BME280;33579;50.058;18.130;2023-06-22T00:05:22;99406.03;;;22.26;100.00
47815;BME280;33579;50.058;18.130;2023-06-22T00:06:24;99409.34;;;22.28;100.00
47815;BME280;33579;50.058;18.130;2023-06-22T00:07:25;99395.09;;;22.21;100.00
47815;BME280;33579;50.058;18.130;2023-06-22T00:08:27;99395.50;;;22.25;100.00
47815;BME280;33579;50.058;18.130;2023-06-22T00:09:28;99401.28;;;22.28;100.00
47815;BME280;33579;50.058;18.130;2023-06-22T00:10:30;99410.97;;;22.29;100.00
47815;BME280;33579;50.058;18.130;2023-06-22T00:11:36;99410.56;;;22.32;100.00
47815;BME280;33579;50.058;18.130;2023-06-22T00:12:37;99420.06;;;22.35;100.00
47815;BME280;33579;50.058;18.130;2023-06-22T00:13:39;99402.94;;;22.29;100.00
47815;BME280;33579;50.058;18.130;2023-06-22T00:14:41;99412.44;;;22.25;100.00
47815;BME280;33579;50.058;18.130;2023-06-22T00:15:42;99419.03;;;22.36;100.00
47815;BME280;33579;50.058;18.130;2023-06-22T00:16:44;99413.03;;;22.34;100.00
47815;BME280;33579;50.058;18.130;2023-06-22T00:17:46;99413.66;;;22.36;100.00
47815;BME280;33579;50.058;18.130;2023-06-22T00:18:47;99416.16;;;22.31;100.00
47815;BME280;33579;50.058;18.130;2023-06-22T00:19:49;99415.31;;;22.30;100.00
47815;BME280;33579;50.058;18.130;2023-06-22T00:20:50;99410.19;;;22.29;100.00
47815;BME280;33579;50.058;18.130;2023-06-22T00:21:52;99417.56;;;22.33;100.00
47815;BME280;33579;50.058;18.130;2023-06-22T00:22:55;99410.38;;;22.34;100.00
47815;BME280;33579;50.058;18.130;2023-06-22T00:23:56;99409.34;;;22.28;100.00
47815;BME280;33579;50.058;18.130;2023-06-22T00:24:58;99412.22;;;22.27;100.00
47815;BME280;33579;50.058;18.130;2023-06-22T00:26:00;99405.81;;;22.14;100.00
47815;BME280;33579;50.058;18.130;2023-06-22T00:27:01;99423.94;;;22.12;100.00
47815;BME280;33579;50.058;18.130;2023-06-22T00:28:04;99416.94;;;22.04;100.00
47815;BME280;33579;50.058;18.130;2023-06-22T00:29:05;99415.47;;;22.02;100.00
47815;BME280;33579;50.058;18.130;2023-06-22T00:30:07;99405.78;;;21.94;100.00
47815;BME280;33579;50.058;18.130;2023-06-22T00:31:09;99419.78;;;21.96;100.00
47815;BME280;33579;50.058;18.130;2023-06-22T00:32:11;99412.19;;;22.00;100.00
47815;BME280;33579;50.058;18.130;2023-06-22T00:33:13;99406.00;;;21.93;100.00
47815;BME280;33579;50.058;18.130;2023-06-22T00:34:15;99410.97;;;22.02;100.00
47815;BME280;33579;50.058;18.130;2023-06-22T00:35:16;99410.53;;;22.06;100.00
47815;BME280;33579;50.058;18.130;2023-06-22T00:36:18;99414.69;;;22.08;100.00
47815;BME280;33579;50.058;18.130;2023-06-22T00:37:19;99416.13;;;22.11;100.00
47815;BME280;33579;50.058;18.130;2023-06-22T00:38:21;99419.63;;;22.11;100.00
47815;BME280;33579;50.058;18.130;2023-06-22T00:39:23;99422.91;;;22.13;100.00
47815;BME280;33579;50.058;18.130;2023-06-22T00:40:25;99413.84;;;22.08;100.00
47815;BME280;33579;50.058;18.130;2023-06-22T00:41:27;99418.16;;;22.15;100.00
47815;BME280;33579;50.058;18.130;2023-06-22T00:42:28;99413.22;;;22.12;100.00
47815;BME280;33579;50.058;18.130;2023-06-22T00:43:30;99416.94;;;22.18;100.00
47815;BME280;33579;50.058;18.130;2023-06-22T00:44:32;99419.41;;;22.06;100.00
47815;BME280;33579;50.058;18.130;2023-06-22T00:45:33;99418.56;;;21.92;100.00
47815;BME280;33579;50.058;18.130;2023-06-22T00:46:35;99412.34;;;21.85;100.00
47815;BME280;33579;50.058;18.130;2023-06-22T00:47:37;99415.41;;;21.68;100.00
47815;BME280;33579;50.058;18.130;2023-06-22T00:48:40;99414.53;;;21.61;100.00
47815;BME280;33579;50.058;18.130;2023-06-22T00:49:41;99412.66;;;21.55;100.00
47815;BME280;33579;50.058;18.130;2023-06-22T00:50:43;99416.38;;;21.54;100.00
47815;BME280;33579;50.058;18.130;2023-06-22T00:51:45;99414.09;;;21.51;100.00
47815;BME280;33579;50.058;18.130;2023-06-22T00:52:58;99407.09;;;21.50;100.00
47815;BME280;33579;50.058;18.130;2023-06-22T00:54:00;99412.00;;;21.39;100.00
47815;BME280;33579;50.058;18.130;2023-06-22T00:55:02;99401.19;;;21.19;100.00
47815;BME280;33579;50.058;18.130;2023-06-22T00:56:06;99415.59;;;21.18;100.00
47815;BME280;33579;50.058;18.130;2023-06-22T00:57:11;99412.44;;;21.08;100.00
47815;BME280;33579;50.058;18.130;2023-06-22T00:58:14;99404.63;;;21.06;100.00
47815;BME280;33579;50.058;18.130;2023-06-22T00:59:15;99392.03;;;21.00;100.00
47815;BME280;33579;50.058;18.130;2023-06-22T01:00:17;99403.75;;;20.99;100.00
47815;BME280;33579;50.058;18.130;2023-06-22T01:01:20;99394.25;;;20.89;100.00
47815;BME280;33579;50.058;18.130;2023-06-22T01:02:22;99398.97;;;20.87;100.00
47815;BME280;33579;50.058;18.130;2023-06-22T01:03:25;99404.16;;;20.74;100.00
47815;BME280;33579;50.058;18.130;2023-06-22T01:04:36;99403.75;;;20.70;100.00
47815;BME280;33579;50.058;18.130;2023-06-22T01:05:38;99402.69;;;20.64;100.00
47815;BME280;33579;50.058;18.130;2023-06-22T01:06:51;99405.19;;;20.73;100.00
47815;BME280;33579;50.058;18.130;2023-06-22T01:08:12;99409.66;;;20.87;100.00
47815;BME280;33579;50.058;18.130;2023-06-22T01:09:22;99398.34;;;20.92;100.00
47815;BME280;33579;50.058;18.130;2023-06-22T01:11:50;99409.81;;;21.14;100.00
47815;BME280;33579;50.058;18.130;2023-06-22T01:13:22;99410.47;;;21.23;100.00
47815;BME280;33579;50.058;18.130;2023-06-22T01:14:24;99408.66;;;21.30;100.00
47815;BME280;33579;50.058;18.130;2023-06-22T01:15:41;99413.63;;;21.40;100.00
47815;BME280;33579;50.058;18.130;2023-06-22T01:16:48;99404.38;;;21.43;100.00
47815;BME280;33579;50.058;18.130;2023-06-22T01:17:52;99410.97;;;21.47;100.00
47815;BME280;33579;50.058;18.130;2023-06-22T01:18:57;99406.06;;;21.51;100.00
47815;BME280;33579;50.058;18.130;2023-06-22T01:20:02;99406.47;;;21.54;100.00
47815;BME280;33579;50.058;18.130;2023-06-22T01:21:06;99408.13;;;21.55;100.00
47815;BME280;33579;50.058;18.130;2023-06-22T01:22:09;99415.53;;;21.60;100.00
47815;BME280;33579;50.058;18.130;2023-06-22T01:23:26;99415.59;;;21.67;100.00
47815;BME280;33579;50.058;18.130;2023-06-22T01:24:41;99413.09;;;21.65;100.00
47815;BME280;33579;50.058;18.130;2023-06-22T01:25:53;99402.13;;;21.46;100.00
47815;BME280;33579;50.058;18.130;2023-06-22T01:28:47;99411.16;;;21.45;100.00
47815;BME280;33579;50.058;18.130;2023-06-22T01:29:52;99400.28;;;21.47;100.00
47815;BME280;33579;50.058;18.130;2023-06-22T01:30:57;99395.53;;;21.42;100.00
47815;BME280;33579;50.058;18.130;2023-06-22T01:32:01;99396.56;;;21.41;100.00
47815;BME280;33579;50.058;18.130;2023-06-22T01:33:08;99396.13;;;21.38;100.00
47815;BME280;33579;50.058;18.130;2023-06-22T01:34:12;99401.72;;;21.43;100.00
47815;BME280;33579;50.058;18.130;2023-06-22T01:35:15;99391.97;;;21.35;100.00
47815;BME280;33579;50.058;18.130;2023-06-22T01:36:18;99394.25;;;21.31;100.00
47815;BME280;33579;50.058;18.130;2023-06-22T01:37:21;99398.59;;;21.39;100.00
47815;BME280;33579;50.058;18.130;2023-06-22T01:38:28;99396.91;;;21.25;100.00
47815;BME280;33579;50.058;18.130;2023-06-22T01:39:30;99404.09;;;21.24;100.00
47815;BME280;33579;50.058;18.130;2023-06-22T01:40:33;99392.94;;;21.20;100.00
47815;BME280;33579;50.058;18.130;2023-06-22T01:41:37;99397.75;;;21.32;100.00
47815;BME280;33579;50.058;18.130;2023-06-22T01:42:39;99405.75;;;21.32;100.00
47815;BME280;33579;50.058;18.130;2023-06-22T01:43:42;99403.53;;;21.36;100.00
47815;BME280;33579;50.058;18.130;2023-06-22T01:44:44;99408.28;;;21.40;100.00
47815;BME280;33579;50.058;18.130;2023-06-22T01:45:47;99412.00;;;21.39;100.00
47815;BME280;33579;50.058;18.130;2023-06-22T01:46:49;99398.78;;;21.38;100.00
47815;BME280;33579;50.058;18.130;2023-06-22T01:47:55;99410.56;;;21.50;100.00
47815;BME280;33579;50.058;18.130;2023-06-22T01:48:57;99407.91;;;21.50;100.00
47815;BME280;33579;50.058;18.130;2023-06-22T01:49:59;99420.88;;;21.53;100.00
47815;BME280;33579;50.058;18.130;2023-06-22T01:51:02;99421.50;;;21.48;100.00
47815;BME280;33579;50.058;18.130;2023-06-22T01:52:05;99421.91;;;21.52;100.00
47815;BME280;33579;50.058;18.130;2023-06-22T01:53:07;99423.78;;;21.58;100.00
47815;BME280;33579;50.058;18.130;2023-06-22T01:54:08;99422.34;;;21.56;100.00
47815;BME280;33579;50.058;18.130;2023-06-22T01:55:10;99420.25;;;21.51;100.00
47815;BME280;33579;50.058;18.130;2023-06-22T01:56:12;99426.91;;;21.62;100.00
47815;BME280;33579;50.058;18.130;2023-06-22T01:57:14;99419.91;;;21.61;100.00
47815;BME280;33579;50.058;18.130;2023-06-22T01:58:17;99413.50;;;21.55;100.00
47815;BME280;33579;50.058;18.130;2023-06-22T01:59:28;99425.84;;;21.56;100.00
47815;BME280;33579;50.058;18.130;2023-06-22T02:00:37;99435.53;;;21.57;100.00
47815;BME280;33579;50.058;18.130;2023-06-22T02:01:54;99434.94;;;21.62;100.00
47815;BME280;33579;50.058;18.130;2023-06-22T02:03:05;99422.75;;;21.53;100.00
47815;BME280;33579;50.058;18.130;2023-06-22T02:04:20;99433.28;;;21.61;100.00
47815;BME280;33579;50.058;18.130;2023-06-22T02:05:26;99426.47;;;21.58;100.00
47815;BME280;33579;50.058;18.130;2023-06-22T02:06:33;99428.13;;;21.59;100.00
47815;BME280;33579;50.058;18.130;2023-06-22T02:07:46;99434.69;;;21.57;100.00
47815;BME280;33579;50.058;18.130;2023-06-22T02:09:02;99444.59;;;21.56;100.00
47815;BME280;33579;50.058;18.130;2023-06-22T02:10:06;99445.22;;;21.58;100.00
47815;BME280;33579;50.058;18.130;2023-06-22T02:11:09;99439.00;;;21.58;100.00
47815;BME280;33579;50.058;18.130;2023-06-22T02:12:17;99436.56;;;21.56;100.00
47815;BME280;33579;50.058;18.130;2023-06-22T02:13:19;99444.00;;;21.61;100.00
47815;BME280;33579;50.058;18.130;2023-06-22T02:14:22;99444.81;;;21.61;100.00
47815;BME280;33579;50.058;18.130;2023-06-22T02:15:24;99439.25;;;21.56;100.00
47815;BME280;33579;50.058;18.130;2023-06-22T02:16:31;99451.59;;;21.57;100.00
47815;BME280;33579;50.058;18.130;2023-06-22T02:17:33;99440.63;;;21.45;100.00
47815;BME280;33579;50.058;18.130;2023-06-22T02:18:35;99444.53;;;21.43;100.00
47815;BME280;33579;50.058;18.130;2023-06-22T02:19:37;99442.25;;;21.46;100.00
47815;BME280;33579;50.058;18.130;2023-06-22T02:20:39;99440.03;;;21.50;100.00
47815;BME280;33579;50.058;18.130;2023-06-22T02:21:41;99439.41;;;21.48;100.00
47815;BME280;33579;50.058;18.130;2023-06-22T02:22:43;99445.19;;;21.52;100.00
47815;BME280;33579;50.058;18.130;2023-06-22T02:23:45;99448.47;;;21.54;100.00
47815;BME280;33579;50.058;18.130;2023-06-22T02:24:47;99440.44;;;21.54;100.00
47815;BME280;33579;50.058;18.130;2023-06-22T02:25:49;99439.63;;;21.53;100.00
47815;BME280;33579;50.058;18.130;2023-06-22T02:26:50;99446.84;;;21.53;100.00
47815;BME280;33579;50.058;18.130;2023-06-22T02:27:53;99442.09;;;21.55;100.00
47815;BME280;33579;50.058;18.130;2023-06-22T02:28:55;99455.69;;;21.60;100.00
47815;BME280;33579;50.058;18.130;2023-06-22T02:29:57;99451.16;;;21.54;100.00
47815;BME280;33579;50.058;18.130;2023-06-22T02:30:59;99460.44;;;21.58;100.00
47815;BME280;33579;50.058;18.130;2023-06-22T02:32:00;99463.72;;;21.60;100.00
47815;BME280;33579;50.058;18.130;2023-06-22T02:33:02;99461.06;;;21.60;100.00
47815;BME280;33579;50.058;18.130;2023-06-22T02:34:04;99454.69;;;21.61;100.00
47815;BME280;33579;50.058;18.130;2023-06-22T02:35:05;99459.66;;;21.64;100.00
47815;BME280;33579;50.058;18.130;2023-06-22T02:36:07;99455.50;;;21.61;100.00
47815;BME280;33579;50.058;18.130;2023-06-22T02:37:09;99463.97;;;21.65;100.00
47815;BME280;33579;50.058;18.130;2023-06-22T02:38:14;99464.63;;;21.67;100.00
47815;BME280;33579;50.058;18.130;2023-06-22T02:39:25;99465.66;;;21.66;100.00
47815;BME280;33579;50.058;18.130;2023-06-22T02:40:27;99456.09;;;21.57;100.00
47815;BME280;33579;50.058;18.130;2023-06-22T02:41:30;99455.88;;;21.52;100.00
47815;BME280;33579;50.058;18.130;2023-06-22T02:42:32;99470.94;;;21.59;100.00
47815;BME280;33579;50.058;18.130;2023-06-22T02:43:33;99466.19;;;21.55;100.00
47815;BME280;33579;50.058;18.130;2023-06-22T02:44:35;99469.50;;;21.57;100.00
47815;BME280;33579;50.058;18.130;2023-06-22T02:45:38;99467.59;;;21.44;100.00
47815;BME280;33579;50.058;18.130;2023-06-22T02:46:40;99467.78;;;21.42;100.00
47815;BME280;33579;50.058;18.130;2023-06-22T02:47:42;99464.63;;;21.32;100.00
47815;BME280;33579;50.058;18.130;2023-06-22T02:48:44;99465.03;;;21.29;100.00
47815;BME280;33579;50.058;18.130;2023-06-22T02:49:47;99462.94;;;21.24;100.00
47815;BME280;33579;50.058;18.130;2023-06-22T02:50:50;99466.03;;;21.21;100.00
47815;BME280;33579;50.058;18.130;2023-06-22T02:51:51;99468.31;;;21.24;100.00
47815;BME280;33579;50.058;18.130;2023-06-22T02:52:55;99467.28;;;21.25;100.00
47815;BME280;33579;50.058;18.130;2023-06-22T02:53:57;99448.09;;;21.22;100.00
47815;BME280;33579;50.058;18.130;2023-06-22T02:54:59;99463.41;;;21.34;100.00
47815;BME280;33579;50.058;18.130;2023-06-22T02:56:02;99464.44;;;21.33;100.00
47815;BME280;33579;50.058;18.130;2023-06-22T02:57:05;99460.31;;;21.31;100.00
47815;BME280;33579;50.058;18.130;2023-06-22T02:58:07;99463.16;;;21.29;100.00
47815;BME280;33579;50.058;18.130;2023-06-22T02:59:11;99469.59;;;21.35;100.00
47815;BME280;33579;50.058;18.130;2023-06-22T03:00:14;99453.91;;;21.25;100.00
47815;BME280;33579;50.058;18.130;2023-06-22T03:01:16;99469.81;;;21.33;100.00
47815;BME280;33579;50.058;18.130;2023-06-22T03:02:21;99460.72;;;21.28;100.00
47815;BME280;33579;50.058;18.130;2023-06-22T03:03:22;99460.09;;;21.26;100.00
47815;BME280;33579;50.058;18.130;2023-06-22T03:04:24;99460.91;;;21.26;100.00
47815;BME280;33579;50.058;18.130;2023-06-22T03:05:26;99461.25;;;21.16;100.00
47815;BME280;33579;50.058;18.130;2023-06-22T03:06:29;99467.69;;;21.22;100.00
47815;BME280;33579;50.058;18.130;2023-06-22T03:07:31;99468.06;;;21.19;100.00
47815;BME280;33579;50.058;18.130;2023-06-22T03:08:33;99472.41;;;20.91;100.00
47815;BME280;33579;50.058;18.130;2023-06-22T03:09:35;99469.13;;;20.68;100.00
47815;BME280;33579;50.058;18.130;2023-06-22T03:10:37;99483.78;;;20.78;100.00
47815;BME280;33579;50.058;18.130;2023-06-22T03:11:39;99477.97;;;20.68;100.00
47815;BME280;33579;50.058;18.130;2023-06-22T03:12:42;99487.28;;;20.50;100.00
47815;BME280;33579;50.058;18.130;2023-06-22T03:13:45;99486.56;;;20.42;100.00
47815;BME280;33579;50.058;18.130;2023-06-22T03:14:46;99469.97;;;20.25;100.00
47815;BME280;33579;50.058;18.130;2023-06-22T03:15:49;99488.34;;;20.34;100.00
47815;BME280;33579;50.058;18.130;2023-06-22T03:16:51;99483.63;;;20.36;100.00
47815;BME280;33579;50.058;18.130;2023-06-22T03:17:53;99474.69;;;20.44;100.00
47815;BME280;33579;50.058;18.130;2023-06-22T03:18:57;99475.03;;;20.63;100.00
47815;BME280;33579;50.058;18.130;2023-06-22T03:19:58;99466.22;;;20.62;100.00
47815;BME280;33579;50.058;18.130;2023-06-22T03:21:01;99481.81;;;20.59;100.00
47815;BME280;33579;50.058;18.130;2023-06-22T03:22:04;99482.50;;;20.46;100.00
47815;BME280;33579;50.058;18.130;2023-06-22T03:23:06;99483.56;;;20.52;100.00
47815;BME280;33579;50.058;18.130;2023-06-22T03:24:08;99485.22;;;20.53;100.00
47815;BME280;33579;50.058;18.130;2023-06-22T03:25:14;99490.38;;;20.54;100.00
47815;BME280;33579;50.058;18.130;2023-06-22T03:26:19;99490.91;;;20.64;100.00
47815;BME280;33579;50.058;18.130;2023-06-22T03:27:21;99489.53;;;20.75;100.00
47815;BME280;33579;50.058;18.130;2023-06-22T03:28:22;99477.72;;;20.85;100.00
47815;BME280;33579;50.058;18.130;2023-06-22T03:29:24;99482.72;;;20.95;100.00
47815;BME280;33579;50.058;18.130;2023-06-22T03:30:26;99480.34;;;21.06;100.00
47815;BME280;33579;50.058;18.130;2023-06-22T03:31:29;99485.53;;;21.15;100.00
47815;BME280;33579;50.058;18.130;2023-06-22T03:33:41;99472.84;;;21.24;100.00
47815;BME280;33579;50.058;18.130;2023-06-22T03:34:43;99471.56;;;21.19;100.00
47815;BME280;33579;50.058;18.130;2023-06-22T03:35:45;99477.94;;;21.18;100.00
47815;BME280;33579;50.058;18.130;2023-06-22T03:36:47;99469.72;;;21.20;100.00
47815;BME280;33579;50.058;18.130;2023-06-22T03:37:49;99481.31;;;21.34;100.00
47815;BME280;33579;50.058;18.130;2023-06-22T03:38:51;99479.47;;;21.34;100.00
47815;BME280;33579;50.058;18.130;2023-06-22T03:39:53;99470.25;;;21.37;100.00
47815;BME280;33579;50.058;18.130;2023-06-22T03:40:55;99472.34;;;21.48;100.00
47815;BME280;33579;50.058;18.130;2023-06-22T03:41:56;99474.41;;;21.53;100.00
47815;BME280;33579;50.058;18.130;2023-06-22T03:43:00;99471.56;;;21.61;100.00
47815;BME280;33579;50.058;18.130;2023-06-22T03:44:04;99469.91;;;21.60;100.00
47815;BME280;33579;50.058;18.130;2023-06-22T03:45:06;99482.47;;;21.60;100.00
47815;BME280;33579;50.058;18.130;2023-06-22T03:46:08;99479.41;;;21.63;100.00
47815;BME280;33579;50.058;18.130;2023-06-22T03:47:09;99473.50;;;21.68;100.00
47815;BME280;33579;50.058;18.130;2023-06-22T03:48:12;99479.84;;;21.67;100.00
47815;BME280;33579;50.058;18.130;2023-06-22T03:49:13;99478.00;;;21.67;100.00
47815;BME280;33579;50.058;18.130;2023-06-22T03:50:15;99470.41;;;21.71;100.00
47815;BME280;33579;50.058;18.130;2023-06-22T03:51:16;99483.59;;;21.79;100.00
47815;BME280;33579;50.058;18.130;2023-06-22T03:52:18;99483.00;;;21.84;100.00
47815;BME280;33579;50.058;18.130;2023-06-22T03:53:20;99484.06;;;21.89;100.00
47815;BME280;33579;50.058;18.130;2023-06-22T03:54:21;99484.28;;;21.95;100.00
47815;BME280;33579;50.058;18.130;2023-06-22T03:55:23;99484.72;;;21.92;100.00
47815;BME280;33579;50.058;18.130;2023-06-22T03:56:24;99489.81;;;21.86;100.00
47815;BME280;33579;50.058;18.130;2023-06-22T03:57:26;99497.06;;;21.86;100.00
47815;BME280;33579;50.058;18.130;2023-06-22T03:58:28;99485.06;;;21.82;100.00
47815;BME280;33579;50.058;18.130;2023-06-22T03:59:29;99481.34;;;21.83;100.00
47815;BME280;33579;50.058;18.130;2023-06-22T04:00:32;99495.41;;;21.92;100.00
47815;BME280;33579;50.058;18.130;2023-06-22T04:01:33;99497.69;;;21.95;100.00
47815;BME280;33579;50.058;18.130;2023-06-22T04:02:35;99499.78;;;21.99;100.00
47815;BME280;33579;50.058;18.130;2023-06-22T04:03:40;99505.16;;;22.06;100.00
47815;BME280;33579;50.058;18.130;2023-06-22T04:04:42;99502.47;;;22.13;100.00
47815;BME280;33579;50.058;18.130;2023-06-22T04:05:44;99513.59;;;22.10;100.00
47815;BME280;33579;50.058;18.130;2023-06-22T04:06:46;99516.25;;;22.10;100.00
47815;BME280;33579;50.058;18.130;2023-06-22T04:07:48;99518.94;;;22.10;100.00
47815;BME280;33579;50.058;18.130;2023-06-22T04:08:49;99515.66;;;22.14;100.00
47815;BME280;33579;50.058;18.130;2023-06-22T04:09:51;99511.34;;;22.20;100.00
47815;BME280;33579;50.058;18.130;2023-06-22T04:10:52;99518.34;;;22.21;100.00
47815;BME280;33579;50.058;18.130;2023-06-22T04:11:54;99520.44;;;22.26;100.00
47815;BME280;33579;50.058;18.130;2023-06-22T04:12:55;99524.16;;;22.31;100.00
47815;BME280;33579;50.058;18.130;2023-06-22T04:13:57;99524.38;;;22.37;100.00
47815;BME280;33579;50.058;18.130;2023-06-22T04:14:59;99517.59;;;22.41;100.00
47815;BME280;33579;50.058;18.130;2023-06-22T04:16:00;99524.78;;;22.47;100.00
47815;BME280;33579;50.058;18.130;2023-06-22T04:17:02;99521.75;;;22.50;100.00
47815;BME280;33579;50.058;18.130;2023-06-22T04:18:04;99517.78;;;22.46;100.00
47815;BME280;33579;50.058;18.130;2023-06-22T04:19:06;99538.63;;;22.44;100.00
47815;BME280;33579;50.058;18.130;2023-06-22T04:20:08;99530.38;;;22.45;100.00
47815;BME280;33579;50.058;18.130;2023-06-22T04:21:10;99529.34;;;22.46;100.00
47815;BME280;33579;50.058;18.130;2023-06-22T04:22:12;99541.28;;;22.44;100.00
47815;BME280;33579;50.058;18.130;2023-06-22T04:23:13;99533.84;;;22.39;100.00
47815;BME280;33579;50.058;18.130;2023-06-22T04:24:16;99542.75;;;22.40;100.00
47815;BME280;33579;50.058;18.130;2023-06-22T04:25:18;99544.25;;;22.49;100.00
47815;BME280;33579;50.058;18.130;2023-06-22T04:26:20;99537.63;;;22.52;100.00
47815;BME280;33579;50.058;18.130;2023-06-22T04:27:21;99531.22;;;22.53;100.00
47815;BME280;33579;50.058;18.130;2023-06-22T04:28:23;99535.38;;;22.55;100.00
47815;BME280;33579;50.058;18.130;2023-06-22T04:29:31;99531.25;;;22.59;100.00
47815;BME280;33579;50.058;18.130;2023-06-22T04:30:33;99530.22;;;22.60;100.00
47815;BME280;33579;50.058;18.130;2023-06-22T04:31:35;99532.69;;;22.62;100.00
47815;BME280;33579;50.058;18.130;2023-06-22T04:32:37;99536.81;;;22.65;100.00
47815;BME280;33579;50.058;18.130;2023-06-22T04:33:39;99540.13;;;22.67;100.00
47815;BME280;33579;50.058;18.130;2023-06-22T04:34:41;99536.00;;;22.64;100.00
47815;BME280;33579;50.058;18.130;2023-06-22T04:35:46;99542.81;;;22.67;100.00
47815;BME280;33579;50.058;18.130;2023-06-22T04:36:48;99539.09;;;22.68;100.00
47815;BME280;33579;50.058;18.130;2023-06-22T04:37:49;99548.41;;;22.72;100.00
47815;BME280;33579;50.058;18.130;2023-06-22T04:38:51;99551.69;;;22.74;100.00
47815;BME280;33579;50.058;18.130;2023-06-22T04:39:53;99545.31;;;22.75;100.00
47815;BME280;33579;50.058;18.130;2023-06-22T04:40:55;99542.41;;;22.77;100.00
47815;BME280;33579;50.058;18.130;2023-06-22T04:41:57;99547.97;;;22.82;100.00
47815;BME280;33579;50.058;18.130;2023-06-22T04:42:59;99535.38;;;22.82;100.00
47815;BME280;33579;50.058;18.130;2023-06-22T04:44:01;99544.88;;;22.78;100.00
47815;BME280;33579;50.058;18.130;2023-06-22T04:45:03;99546.94;;;22.76;100.00
47815;BME280;33579;50.058;18.130;2023-06-22T04:46:06;99536.00;;;22.71;100.00
47815;BME280;33579;50.058;18.130;2023-06-22T04:47:08;99531.66;;;22.70;100.00
47815;BME280;33579;50.058;18.130;2023-06-22T04:48:23;99539.09;;;22.68;100.00
47815;BME280;33579;50.058;18.130;2023-06-22T04:49:26;99541.78;;;22.68;100.00
47815;BME280;33579;50.058;18.130;2023-06-22T04:50:28;99538.06;;;22.69;100.00
47815;BME280;33579;50.058;18.130;2023-06-22T04:51:46;99546.09;;;22.69;100.00
47815;BME280;33579;50.058;18.130;2023-06-22T04:52:51;99546.53;;;22.72;100.00
47815;BME280;33579;50.058;18.130;2023-06-22T04:53:54;99539.94;;;22.75;100.00
47815;BME280;33579;50.058;18.130;2023-06-22T04:54:56;99540.75;;;22.82;100.00
47815;BME280;33579;50.058;18.130;2023-06-22T04:55:57;99541.78;;;22.88;100.00
47815;BME280;33579;50.058;18.130;2023-06-22T04:57:02;99543.44;;;22.96;100.00
47815;BME280;33579;50.058;18.130;2023-06-22T04:58:04;99546.94;;;23.03;100.00
47815;BME280;33579;50.058;18.130;2023-06-22T04:59:07;99542.41;;;23.10;100.00
47815;BME280;33579;50.058;18.130;2023-06-22T05:00:09;99545.91;;;23.17;100.00
47815;BME280;33579;50.058;18.130;2023-06-22T05:01:11;99557.47;;;23.25;100.00
47815;BME280;33579;50.058;18.130;2023-06-22T05:02:12;99553.34;;;23.29;100.00
47815;BME280;33579;50.058;18.130;2023-06-22T05:03:15;99546.94;;;23.37;100.00
47815;BME280;33579;50.058;18.130;2023-06-22T05:04:24;99556.63;;;23.44;100.00
47815;BME280;33579;50.058;18.130;2023-06-22T05:05:40;99553.53;;;23.48;100.00
47815;BME280;33579;50.058;18.130;2023-06-22T05:06:42;99547.94;;;23.49;100.00
47815;BME280;33579;50.058;18.130;2023-06-22T05:09:14;99544.66;;;23.40;100.00
47815;BME280;33579;50.058;18.130;2023-06-22T05:12:49;99549.63;;;23.37;100.00
47815;BME280;33579;50.058;18.130;2023-06-22T05:13:52;99562.41;;;23.41;100.00
47815;BME280;33579;50.058;18.130;2023-06-22T05:14:53;99556.22;;;23.48;100.00
47815;BME280;33579;50.058;18.130;2023-06-22T05:15:55;99557.63;;;23.50;100.00
47815;BME280;33579;50.058;18.130;2023-06-22T05:16:57;99559.28;;;23.51;100.00
47815;BME280;33579;50.058;18.130;2023-06-22T05:17:58;99556.41;;;23.53;100.00
47815;BME280;33579;50.058;18.130;2023-06-22T05:19:00;99562.81;;;23.52;100.00
47815;BME280;33579;50.058;18.130;2023-06-22T05:20:02;99554.34;;;23.55;100.00
47815;BME280;33579;50.058;18.130;2023-06-22T05:21:04;99557.22;;;23.60;100.00
47815;BME280;33579;50.058;18.130;2023-06-22T05:22:06;99559.28;;;23.65;100.00
47815;BME280;33579;50.058;18.130;2023-06-22T05:23:07;99552.88;;;23.66;100.00
47815;BME280;33579;50.058;18.130;2023-06-22T05:24:09;99546.22;;;23.75;100.00
47815;BME280;33579;50.058;18.130;2023-06-22T05:25:11;99550.34;;;23.78;100.00
47815;BME280;33579;50.058;18.130;2023-06-22T05:26:13;99550.78;;;23.75;100.00
47815;BME280;33579;50.058;18.130;2023-06-22T05:27:14;99550.38;;;23.71;100.00
47815;BME280;33579;50.058;18.130;2023-06-22T05:28:16;99548.50;;;23.78;100.00
47815;BME280;33579;50.058;18.130;2023-06-22T05:29:17;99556.53;;;23.85;100.00
47815;BME280;33579;50.058;18.130;2023-06-22T05:30:19;99548.44;;;23.92;100.00
47815;BME280;33579;50.058;18.130;2023-06-22T05:31:23;99550.91;;;23.93;100.00
47815;BME280;33579;50.058;18.130;2023-06-22T05:32:24;99546.16;;;23.95;100.00
47815;BME280;33579;50.058;18.130;2023-06-22T05:33:26;99555.63;;;23.98;100.00
47815;BME280;33579;50.058;18.130;2023-06-22T05:34:28;99549.66;;;23.96;100.00